sensor_id;sensor_type;location;lat;lon;timestamp;P1;durP1;ratioP1;P2;durP2;ratioP2
67053;SDS011;53960;51.826;5.850;2022-08-21T00:01:41;10.17;;;3.80;;
67053;SDS011;53960;51.826;5.850;2022-08-21T00:04:08;9.60;;;3.70;;
67053;SDS011;53960;51.826;5.850;2022-08-21T00:06:34;10.35;;;3.58;;
67053;SDS011;53960;51.826;5.850;2022-08-21T00:09:01;9.68;;;3.33;;
67053;SDS011;53960;51.826;5.850;2022-08-21T00:11:29;10.45;;;3.97;;
67053;SDS011;53960;51.826;5.850;2022-08-21T00:13:55;9.57;;;3.47;;
67053;SDS011;53960;51.826;5.850;2022-08-21T00:16:20;8.60;;;3.72;;
67053;SDS011;53960;51.826;5.850;2022-08-21T00:18:46;9.47;;;3.33;;
67053;SDS011;53960;51.826;5.850;2022-08-21T00:21:12;9.47;;;3.40;;
67053;SDS011;53960;51.826;5.850;2022-08-21T00:23:38;10.07;;;3.50;;
67053;SDS011;53960;51.826;5.850;2022-08-21T00:26:04;8.55;;;3.40;;
67053;SDS011;53960;51.826;5.850;2022-08-21T00:28:29;10.53;;;3.37;;
67053;SDS011;53960;51.826;5.850;2022-08-21T00:30:55;9.37;;;3.70;;
67053;SDS011;53960;51.826;5.850;2022-08-21T00:33:21;9.23;;;3.58;;
67053;SDS011;53960;51.826;5.850;2022-08-21T00:35:47;8.82;;;3.78;;
67053;SDS011;53960;51.826;5.850;2022-08-21T00:38:12;8.80;;;3.60;;
67053;SDS011;53960;51.826;5.850;2022-08-21T00:40:43;8.80;;;3.53;;
67053;SDS011;53960;51.826;5.850;2022-08-21T00:43:17;10.52;;;3.95;;
67053;SDS011;53960;51.826;5.850;2022-08-21T00:45:45;11.57;;;4.20;;
67053;SDS011;53960;51.826;5.850;2022-08-21T00:48:11;10.88;;;3.78;;
67053;SDS011;53960;51.826;5.850;2022-08-21T00:50:37;10.80;;;3.77;;
67053;SDS011;53960;51.826;5.850;2022-08-21T00:53:06;8.68;;;3.50;;
67053;SDS011;53960;51.826;5.850;2022-08-21T00:55:33;10.55;;;4.05;;
67053;SDS011;53960;51.826;5.850;2022-08-21T00:58:00;10.77;;;3.80;;
67053;SDS011;53960;51.826;5.850;2022-08-21T01:00:29;10.27;;;3.53;;
67053;SDS011;53960;51.826;5.850;2022-08-21T01:02:57;8.73;;;3.63;;
67053;SDS011;53960;51.826;5.850;2022-08-21T01:05:24;8.48;;;3.70;;
67053;SDS011;53960;51.826;5.850;2022-08-21T01:07:50;9.43;;;3.70;;
67053;SDS011;53960;51.826;5.850;2022-08-21T01:10:16;11.27;;;3.87;;
67053;SDS011;53960;51.826;5.850;2022-08-21T01:12:41;9.63;;;3.80;;
67053;SDS011;53960;51.826;5.850;2022-08-21T01:15:10;9.35;;;3.92;;
67053;SDS011;53960;51.826;5.850;2022-08-21T01:17:37;9.73;;;4.10;;
67053;SDS011;53960;51.826;5.850;2022-08-21T01:20:04;9.80;;;3.72;;
67053;SDS011;53960;51.826;5.850;2022-08-21T01:22:31;9.60;;;3.72;;
67053;SDS011;53960;51.826;5.850;2022-08-21T01:24:57;9.83;;;3.80;;
67053;SDS011;53960;51.826;5.850;2022-08-21T01:27:22;10.37;;;3.97;;
67053;SDS011;53960;51.826;5.850;2022-08-21T01:30:04;9.00;;;4.10;;
67053;SDS011;53960;51.826;5.850;2022-08-21T01:32:34;11.10;;;4.72;;
67053;SDS011;53960;51.826;5.850;2022-08-21T01:35:00;13.40;;;5.13;;
67053;SDS011;53960;51.826;5.850;2022-08-21T01:37:26;11.93;;;4.80;;
67053;SDS011;53960;51.826;5.850;2022-08-21T01:39:51;10.40;;;4.77;;
67053;SDS011;53960;51.826;5.850;2022-08-21T01:42:17;10.53;;;4.87;;
67053;SDS011;53960;51.826;5.850;2022-08-21T01:44:42;9.97;;;4.77;;
67053;SDS011;53960;51.826;5.850;2022-08-21T01:47:09;10.93;;;5.00;;
67053;SDS011;53960;51.826;5.850;2022-08-21T01:49:37;11.90;;;4.78;;
67053;SDS011;53960;51.826;5.850;2022-08-21T01:52:03;12.10;;;5.55;;
67053;SDS011;53960;51.826;5.850;2022-08-21T01:54:29;10.73;;;5.28;;
67053;SDS011;53960;51.826;5.850;2022-08-21T01:56:55;14.07;;;5.90;;
67053;SDS011;53960;51.826;5.850;2022-08-21T01:59:22;11.73;;;5.40;;
67053;SDS011;53960;51.826;5.850;2022-08-21T02:01:48;10.50;;;5.53;;
67053;SDS011;53960;51.826;5.850;2022-08-21T02:04:14;12.52;;;5.85;;
67053;SDS011;53960;51.826;5.850;2022-08-21T02:06:39;12.40;;;4.83;;
67053;SDS011;53960;51.826;5.850;2022-08-21T02:09:05;12.20;;;5.97;;
67053;SDS011;53960;51.826;5.850;2022-08-21T02:11:32;11.80;;;6.10;;
67053;SDS011;53960;51.826;5.850;2022-08-21T02:13:58;10.77;;;5.53;;
67053;SDS011;53960;51.826;5.850;2022-08-21T02:16:23;11.70;;;5.57;;
67053;SDS011;53960;51.826;5.850;2022-08-21T02:18:50;11.25;;;5.78;;
67053;SDS011;53960;51.826;5.850;2022-08-21T02:21:15;13.25;;;6.25;;
67053;SDS011;53960;51.826;5.850;2022-08-21T02:23:41;12.47;;;6.80;;
67053;SDS011;53960;51.826;5.850;2022-08-21T02:26:07;12.33;;;6.87;;
67053;SDS011;53960;51.826;5.850;2022-08-21T02:28:33;14.57;;;6.97;;
67053;SDS011;53960;51.826;5.850;2022-08-21T02:31:00;15.23;;;6.97;;
67053;SDS011;53960;51.826;5.850;2022-08-21T02:33:26;15.32;;;7.72;;
67053;SDS011;53960;51.826;5.850;2022-08-21T02:35:52;16.42;;;7.50;;
67053;SDS011;53960;51.826;5.850;2022-08-21T02:38:20;13.47;;;7.10;;
67053;SDS011;53960;51.826;5.850;2022-08-21T02:40:47;14.82;;;7.18;;
67053;SDS011;53960;51.826;5.850;2022-08-21T02:43:15;13.95;;;7.03;;
67053;SDS011;53960;51.826;5.850;2022-08-21T02:45:41;14.32;;;7.10;;
67053;SDS011;53960;51.826;5.850;2022-08-21T02:48:08;13.88;;;7.40;;
67053;SDS011;53960;51.826;5.850;2022-08-21T02:50:41;13.60;;;7.17;;
67053;SDS011;53960;51.826;5.850;2022-08-21T02:53:10;14.25;;;7.40;;
67053;SDS011;53960;51.826;5.850;2022-08-21T02:55:38;13.93;;;7.38;;
67053;SDS011;53960;51.826;5.850;2022-08-21T02:58:04;14.43;;;7.38;;
67053;SDS011;53960;51.826;5.850;2022-08-21T03:00:31;13.17;;;6.97;;
67053;SDS011;53960;51.826;5.850;2022-08-21T03:02:58;13.35;;;7.10;;
67053;SDS011;53960;51.826;5.850;2022-08-21T03:05:24;14.10;;;6.68;;
67053;SDS011;53960;51.826;5.850;2022-08-21T03:07:51;12.80;;;6.60;;
67053;SDS011;53960;51.826;5.850;2022-08-21T03:10:17;14.13;;;7.03;;
67053;SDS011;53960;51.826;5.850;2022-08-21T03:12:44;14.45;;;7.03;;
67053;SDS011;53960;51.826;5.850;2022-08-21T03:15:11;13.90;;;7.03;;
67053;SDS011;53960;51.826;5.850;2022-08-21T03:17:38;16.67;;;7.68;;
67053;SDS011;53960;51.826;5.850;2022-08-21T03:20:04;15.07;;;7.33;;
67053;SDS011;53960;51.826;5.850;2022-08-21T03:22:30;13.98;;;7.57;;
67053;SDS011;53960;51.826;5.850;2022-08-21T03:24:57;13.67;;;7.57;;
67053;SDS011;53960;51.826;5.850;2022-08-21T03:27:23;14.98;;;8.02;;
67053;SDS011;53960;51.826;5.850;2022-08-21T03:29:51;14.68;;;7.55;;
67053;SDS011;53960;51.826;5.850;2022-08-21T03:32:17;15.50;;;8.00;;
67053;SDS011;53960;51.826;5.850;2022-08-21T03:34:43;16.10;;;8.13;;
67053;SDS011;53960;51.826;5.850;2022-08-21T03:37:08;13.97;;;8.00;;
67053;SDS011;53960;51.826;5.850;2022-08-21T03:39:34;15.52;;;7.97;;
67053;SDS011;53960;51.826;5.850;2022-08-21T03:42:00;15.70;;;8.07;;
67053;SDS011;53960;51.826;5.850;2022-08-21T03:44:26;15.43;;;8.13;;
67053;SDS011;53960;51.826;5.850;2022-08-21T03:46:53;18.63;;;9.20;;
67053;SDS011;53960;51.826;5.850;2022-08-21T03:49:19;16.33;;;8.40;;
67053;SDS011;53960;51.826;5.850;2022-08-21T03:51:44;17.37;;;8.70;;
67053;SDS011;53960;51.826;5.850;2022-08-21T03:54:10;16.97;;;8.70;;
67053;SDS011;53960;51.826;5.850;2022-08-21T03:56:35;15.80;;;9.10;;
67053;SDS011;53960;51.826;5.850;2022-08-21T03:59:00;16.03;;;8.77;;
67053;SDS011;53960;51.826;5.850;2022-08-21T04:01:27;14.47;;;8.23;;
67053;SDS011;53960;51.826;5.850;2022-08-21T04:03:53;14.98;;;8.40;;
67053;SDS011;53960;51.826;5.850;2022-08-21T04:06:18;17.40;;;8.37;;
67053;SDS011;53960;51.826;5.850;2022-08-21T04:08:43;16.77;;;8.63;;
67053;SDS011;53960;51.826;5.850;2022-08-21T04:11:09;16.30;;;8.50;;
67053;SDS011;53960;51.826;5.850;2022-08-21T04:13:37;13.20;;;7.82;;
67053;SDS011;53960;51.826;5.850;2022-08-21T04:16:03;17.75;;;8.68;;
67053;SDS011;53960;51.826;5.850;2022-08-21T04:18:29;15.37;;;8.43;;
67053;SDS011;53960;51.826;5.850;2022-08-21T04:20:55;16.30;;;8.37;;
67053;SDS011;53960;51.826;5.850;2022-08-21T04:23:22;16.02;;;8.93;;
67053;SDS011;53960;51.826;5.850;2022-08-21T04:25:48;14.73;;;7.50;;
67053;SDS011;53960;51.826;5.850;2022-08-21T04:28:13;14.63;;;7.47;;
67053;SDS011;53960;51.826;5.850;2022-08-21T04:30:39;14.47;;;7.40;;
67053;SDS011;53960;51.826;5.850;2022-08-21T04:33:04;14.30;;;7.47;;
67053;SDS011;53960;51.826;5.850;2022-08-21T04:35:30;14.52;;;7.60;;
67053;SDS011;53960;51.826;5.850;2022-08-21T04:37:56;15.80;;;7.40;;
67053;SDS011;53960;51.826;5.850;2022-08-21T04:40:23;15.07;;;7.70;;
67053;SDS011;53960;51.826;5.850;2022-08-21T04:42:52;13.82;;;7.28;;
67053;SDS011;53960;51.826;5.850;2022-08-21T04:45:28;15.15;;;8.07;;
67053;SDS011;53960;51.826;5.850;2022-08-21T04:47:56;15.25;;;9.40;;
67053;SDS011;53960;51.826;5.850;2022-08-21T04:50:45;15.80;;;9.30;;
67053;SDS011;53960;51.826;5.850;2022-08-21T04:53:18;16.85;;;9.80;;
67053;SDS011;53960;51.826;5.850;2022-08-21T04:55:48;17.35;;;9.73;;
67053;SDS011;53960;51.826;5.850;2022-08-21T04:58:18;18.40;;;10.02;;
67053;SDS011;53960;51.826;5.850;2022-08-21T05:00:46;18.70;;;10.30;;
67053;SDS011;53960;51.826;5.850;2022-08-21T05:03:12;20.33;;;10.43;;
67053;SDS011;53960;51.826;5.850;2022-08-21T05:05:40;19.42;;;10.45;;
67053;SDS011;53960;51.826;5.850;2022-08-21T05:08:05;19.65;;;10.60;;
67053;SDS011;53960;51.826;5.850;2022-08-21T05:10:32;19.00;;;10.73;;
67053;SDS011;53960;51.826;5.850;2022-08-21T05:12:58;19.40;;;10.73;;
67053;SDS011;53960;51.826;5.850;2022-08-21T05:15:25;17.83;;;10.98;;
67053;SDS011;53960;51.826;5.850;2022-08-21T05:17:51;17.30;;;11.20;;
67053;SDS011;53960;51.826;5.850;2022-08-21T05:20:16;18.73;;;11.27;;
67053;SDS011;53960;51.826;5.850;2022-08-21T05:22:42;16.93;;;10.93;;
67053;SDS011;53960;51.826;5.850;2022-08-21T05:25:08;18.77;;;10.60;;
67053;SDS011;53960;51.826;5.850;2022-08-21T05:27:34;20.17;;;11.20;;
67053;SDS011;53960;51.826;5.850;2022-08-21T05:30:00;18.45;;;11.23;;
67053;SDS011;53960;51.826;5.850;2022-08-21T05:32:26;18.90;;;11.27;;
67053;SDS011;53960;51.826;5.850;2022-08-21T05:34:52;16.90;;;11.10;;
67053;SDS011;53960;51.826;5.850;2022-08-21T05:37:18;19.50;;;11.43;;
67053;SDS011;53960;51.826;5.850;2022-08-21T05:39:43;19.70;;;11.83;;
67053;SDS011;53960;51.826;5.850;2022-08-21T05:42:09;20.13;;;11.93;;
67053;SDS011;53960;51.826;5.850;2022-08-21T05:44:34;20.20;;;12.27;;
67053;SDS011;53960;51.826;5.850;2022-08-21T05:47:03;16.73;;;11.23;;
67053;SDS011;53960;51.826;5.850;2022-08-21T05:49:33;19.03;;;11.10;;
67053;SDS011;53960;51.826;5.850;2022-08-21T05:51:59;20.90;;;12.23;;
67053;SDS011;53960;51.826;5.850;2022-08-21T05:54:24;19.17;;;11.23;;
67053;SDS011;53960;51.826;5.850;2022-08-21T05:56:50;19.50;;;11.27;;
67053;SDS011;53960;51.826;5.850;2022-08-21T05:59:15;18.90;;;10.63;;
67053;SDS011;53960;51.826;5.850;2022-08-21T06:01:40;17.80;;;11.70;;
67053;SDS011;53960;51.826;5.850;2022-08-21T06:04:06;19.30;;;10.98;;
67053;SDS011;53960;51.826;5.850;2022-08-21T06:06:32;16.90;;;10.33;;
67053;SDS011;53960;51.826;5.850;2022-08-21T06:08:58;17.05;;;10.43;;
67053;SDS011;53960;51.826;5.850;2022-08-21T06:11:23;18.17;;;10.60;;
67053;SDS011;53960;51.826;5.850;2022-08-21T06:13:49;15.03;;;9.10;;
67053;SDS011;53960;51.826;5.850;2022-08-21T06:16:15;18.47;;;10.20;;
67053;SDS011;53960;51.826;5.850;2022-08-21T06:18:41;19.05;;;9.52;;
67053;SDS011;53960;51.826;5.850;2022-08-21T06:21:07;17.38;;;9.52;;
67053;SDS011;53960;51.826;5.850;2022-08-21T06:23:33;16.27;;;9.10;;
67053;SDS011;53960;51.826;5.850;2022-08-21T06:26:00;16.27;;;9.07;;
67053;SDS011;53960;51.826;5.850;2022-08-21T06:28:26;17.73;;;9.35;;
67053;SDS011;53960;51.826;5.850;2022-08-21T06:30:51;17.50;;;9.27;;
67053;SDS011;53960;51.826;5.850;2022-08-21T06:33:17;16.73;;;8.63;;
67053;SDS011;53960;51.826;5.850;2022-08-21T06:35:42;15.50;;;8.43;;
67053;SDS011;53960;51.826;5.850;2022-08-21T06:38:08;17.23;;;9.00;;
67053;SDS011;53960;51.826;5.850;2022-08-21T06:40:33;16.70;;;8.50;;
67053;SDS011;53960;51.826;5.850;2022-08-21T06:43:04;16.07;;;9.20;;
67053;SDS011;53960;51.826;5.850;2022-08-21T06:45:31;19.88;;;8.13;;
67053;SDS011;53960;51.826;5.850;2022-08-21T06:47:57;15.90;;;8.30;;
67053;SDS011;53960;51.826;5.850;2022-08-21T06:50:22;15.97;;;7.87;;
67053;SDS011;53960;51.826;5.850;2022-08-21T06:52:48;17.37;;;8.17;;
67053;SDS011;53960;51.826;5.850;2022-08-21T08:33:30;15.77;;;4.95;;
67053;SDS011;53960;51.826;5.850;2022-08-21T08:35:55;15.07;;;4.87;;
67053;SDS011;53960;51.826;5.850;2022-08-21T08:38:22;16.20;;;4.40;;
67053;SDS011;53960;51.826;5.850;2022-08-21T08:43:42;14.38;;;5.13;;
67053;SDS011;53960;51.826;5.850;2022-08-21T08:46:15;12.25;;;4.30;;
67053;SDS011;53960;51.826;5.850;2022-08-21T08:48:57;16.05;;;4.10;;
67053;SDS011;53960;51.826;5.850;2022-08-21T08:51:40;12.13;;;3.57;;
67053;SDS011;53960;51.826;5.850;2022-08-21T08:54:12;12.95;;;3.63;;
67053;SDS011;53960;51.826;5.850;2022-08-21T08:56:42;11.93;;;3.47;;
67053;SDS011;53960;51.826;5.850;2022-08-21T08:59:13;17.60;;;4.00;;
67053;SDS011;53960;51.826;5.850;2022-08-21T09:01:41;12.52;;;3.47;;
67053;SDS011;53960;51.826;5.850;2022-08-21T09:04:07;16.20;;;4.13;;
67053;SDS011;53960;51.826;5.850;2022-08-21T09:06:42;16.40;;;4.60;;
67053;SDS011;53960;51.826;5.850;2022-08-21T09:09:31;9.70;;;3.13;;
67053;SDS011;53960;51.826;5.850;2022-08-21T09:14:58;13.48;;;3.00;;
67053;SDS011;53960;51.826;5.850;2022-08-21T09:20:27;11.80;;;3.42;;
67053;SDS011;53960;51.826;5.850;2022-08-21T09:23:16;12.07;;;3.65;;
67053;SDS011;53960;51.826;5.850;2022-08-21T09:26:00;15.47;;;3.20;;
67053;SDS011;53960;51.826;5.850;2022-08-21T09:28:32;11.55;;;2.97;;
67053;SDS011;53960;51.826;5.850;2022-08-21T09:30:59;12.80;;;2.80;;
67053;SDS011;53960;51.826;5.850;2022-08-21T09:33:28;10.25;;;2.75;;
67053;SDS011;53960;51.826;5.850;2022-08-21T09:35:54;12.15;;;2.50;;
67053;SDS011;53960;51.826;5.850;2022-08-21T09:38:25;13.20;;;2.40;;
67053;SDS011;53960;51.826;5.850;2022-08-21T09:41:07;13.52;;;3.05;;
67053;SDS011;53960;51.826;5.850;2022-08-21T09:43:34;12.07;;;2.60;;
67053;SDS011;53960;51.826;5.850;2022-08-21T09:46:04;10.98;;;2.67;;
67053;SDS011;53960;51.826;5.850;2022-08-21T09:48:29;14.80;;;2.40;;
67053;SDS011;53960;51.826;5.850;2022-08-21T09:51:15;9.17;;;2.23;;
67053;SDS011;53960;51.826;5.850;2022-08-21T09:53:51;10.02;;;2.38;;
67053;SDS011;53960;51.826;5.850;2022-08-21T09:59:16;14.75;;;2.53;;
67053;SDS011;53960;51.826;5.850;2022-08-21T10:01:52;8.77;;;2.42;;
67053;SDS011;53960;51.826;5.850;2022-08-21T10:04:20;10.47;;;2.57;;
67053;SDS011;53960;51.826;5.850;2022-08-21T10:06:52;8.80;;;2.28;;
67053;SDS011;53960;51.826;5.850;2022-08-21T10:09:18;10.40;;;2.43;;
67053;SDS011;53960;51.826;5.850;2022-08-21T10:15:13;11.40;;;2.67;;
67053;SDS011;53960;51.826;5.850;2022-08-21T10:17:18;9.15;;;2.10;;
67053;SDS011;53960;51.826;5.850;2022-08-21T10:20:00;8.93;;;2.30;;
67053;SDS011;53960;51.826;5.850;2022-08-21T10:25:31;9.55;;;2.28;;
67053;SDS011;53960;51.826;5.850;2022-08-21T10:31:13;9.50;;;2.20;;
67053;SDS011;53960;51.826;5.850;2022-08-21T10:36:46;10.00;;;2.47;;
67053;SDS011;53960;51.826;5.850;2022-08-21T10:39:37;9.77;;;2.08;;
67053;SDS011;53960;51.826;5.850;2022-08-21T10:42:27;8.57;;;2.22;;
67053;SDS011;53960;51.826;5.850;2022-08-21T10:45:08;11.93;;;2.10;;
67053;SDS011;53960;51.826;5.850;2022-08-21T10:47:54;8.45;;;2.00;;
67053;SDS011;53960;51.826;5.850;2022-08-21T10:52:56;9.60;;;1.92;;
67053;SDS011;53960;51.826;5.850;2022-08-21T10:55:35;10.13;;;2.20;;
67053;SDS011;53960;51.826;5.850;2022-08-21T10:58:09;10.48;;;2.42;;
67053;SDS011;53960;51.826;5.850;2022-08-21T11:00:45;8.70;;;1.90;;
67053;SDS011;53960;51.826;5.850;2022-08-21T11:03:51;8.53;;;2.00;;
67053;SDS011;53960;51.826;5.850;2022-08-21T11:06:17;8.88;;;1.92;;
67053;SDS011;53960;51.826;5.850;2022-08-21T11:08:47;8.75;;;1.70;;
67053;SDS011;53960;51.826;5.850;2022-08-21T11:14:04;7.20;;;1.85;;
67053;SDS011;53960;51.826;5.850;2022-08-21T11:16:45;12.37;;;2.20;;
67053;SDS011;53960;51.826;5.850;2022-08-21T11:19:16;8.45;;;1.70;;
67053;SDS011;53960;51.826;5.850;2022-08-21T11:21:48;8.45;;;1.80;;
67053;SDS011;53960;51.826;5.850;2022-08-21T11:27:09;10.45;;;2.00;;
67053;SDS011;53960;51.826;5.850;2022-08-21T11:30:02;8.87;;;1.97;;
67053;SDS011;53960;51.826;5.850;2022-08-21T11:43:52;11.07;;;1.77;;
67053;SDS011;53960;51.826;5.850;2022-08-21T11:49:02;7.35;;;2.10;;
67053;SDS011;53960;51.826;5.850;2022-08-21T11:54:40;10.23;;;2.10;;
67053;SDS011;53960;51.826;5.850;2022-08-21T11:57:24;9.53;;;2.10;;
67053;SDS011;53960;51.826;5.850;2022-08-21T12:00:05;6.88;;;1.77;;
67053;SDS011;53960;51.826;5.850;2022-08-21T12:02:56;9.05;;;1.75;;
67053;SDS011;53960;51.826;5.850;2022-08-21T12:05:32;8.00;;;1.50;;
67053;SDS011;53960;51.826;5.850;2022-08-21T12:08:03;9.07;;;1.80;;
67053;SDS011;53960;51.826;5.850;2022-08-21T12:10:39;7.63;;;1.67;;
67053;SDS011;53960;51.826;5.850;2022-08-21T12:13:23;7.90;;;1.92;;
67053;SDS011;53960;51.826;5.850;2022-08-21T12:15:51;8.10;;;1.90;;
67053;SDS011;53960;51.826;5.850;2022-08-21T12:18:23;7.97;;;1.70;;
67053;SDS011;53960;51.826;5.850;2022-08-21T12:23:28;8.77;;;2.20;;
67053;SDS011;53960;51.826;5.850;2022-08-21T12:29:03;8.47;;;2.00;;
67053;SDS011;53960;51.826;5.850;2022-08-21T12:31:33;8.68;;;2.10;;
67053;SDS011;53960;51.826;5.850;2022-08-21T12:33:59;9.43;;;2.10;;
67053;SDS011;53960;51.826;5.850;2022-08-21T12:36:42;9.02;;;1.88;;
67053;SDS011;53960;51.826;5.850;2022-08-21T12:39:13;8.73;;;1.90;;
67053;SDS011;53960;51.826;5.850;2022-08-21T12:41:46;7.68;;;1.38;;
67053;SDS011;53960;51.826;5.850;2022-08-21T12:44:17;7.72;;;1.70;;
67053;SDS011;53960;51.826;5.850;2022-08-21T12:46:51;7.50;;;1.50;;
67053;SDS011;53960;51.826;5.850;2022-08-21T12:49:44;8.70;;;1.77;;
67053;SDS011;53960;51.826;5.850;2022-08-21T12:52:23;6.82;;;1.70;;
67053;SDS011;53960;51.826;5.850;2022-08-21T12:54:55;7.93;;;1.70;;
67053;SDS011;53960;51.826;5.850;2022-08-21T12:57:21;14.43;;;2.60;;
67053;SDS011;53960;51.826;5.850;2022-08-21T12:59:55;8.32;;;1.80;;
67053;SDS011;53960;51.826;5.850;2022-08-21T13:02:28;9.65;;;1.55;;
67053;SDS011;53960;51.826;5.850;2022-08-21T13:04:56;9.03;;;1.53;;
67053;SDS011;53960;51.826;5.850;2022-08-21T13:07:27;9.05;;;1.80;;
67053;SDS011;53960;51.826;5.850;2022-08-21T13:09:58;9.07;;;2.17;;
67053;SDS011;53960;51.826;5.850;2022-08-21T13:12:26;6.95;;;1.40;;
67053;SDS011;53960;51.826;5.850;2022-08-21T13:14:55;9.32;;;1.60;;
67053;SDS011;53960;51.826;5.850;2022-08-21T13:17:22;10.50;;;1.67;;
67053;SDS011;53960;51.826;5.850;2022-08-21T13:19:53;7.28;;;1.50;;
67053;SDS011;53960;51.826;5.850;2022-08-21T13:22:23;8.98;;;1.45;;
67053;SDS011;53960;51.826;5.850;2022-08-21T13:24:50;8.10;;;1.70;;
67053;SDS011;53960;51.826;5.850;2022-08-21T13:27:23;9.07;;;1.80;;
67053;SDS011;53960;51.826;5.850;2022-08-21T13:30:00;9.25;;;1.50;;
67053;SDS011;53960;51.826;5.850;2022-08-21T13:32:28;7.82;;;1.73;;
67053;SDS011;53960;51.826;5.850;2022-08-21T13:34:56;6.90;;;1.40;;
67053;SDS011;53960;51.826;5.850;2022-08-21T13:37:22;7.53;;;1.50;;
67053;SDS011;53960;51.826;5.850;2022-08-21T13:39:51;6.80;;;1.50;;
67053;SDS011;53960;51.826;5.850;2022-08-21T13:42:17;7.22;;;1.45;;
67053;SDS011;53960;51.826;5.850;2022-08-21T13:44:45;9.23;;;1.55;;
67053;SDS011;53960;51.826;5.850;2022-08-21T13:47:12;9.03;;;1.53;;
67053;SDS011;53960;51.826;5.850;2022-08-21T13:49:40;8.77;;;1.60;;
67053;SDS011;53960;51.826;5.850;2022-08-21T13:52:18;9.68;;;1.50;;
67053;SDS011;53960;51.826;5.850;2022-08-21T13:54:51;8.10;;;1.58;;
67053;SDS011;53960;51.826;5.850;2022-08-21T13:57:25;8.90;;;1.75;;
67053;SDS011;53960;51.826;5.850;2022-08-21T13:59:52;7.20;;;1.60;;
67053;SDS011;53960;51.826;5.850;2022-08-21T14:02:18;9.50;;;1.65;;
67053;SDS011;53960;51.826;5.850;2022-08-21T14:04:58;7.03;;;1.50;;
67053;SDS011;53960;51.826;5.850;2022-08-21T14:07:28;10.38;;;1.50;;
67053;SDS011;53960;51.826;5.850;2022-08-21T14:09:56;6.82;;;1.50;;
67053;SDS011;53960;51.826;5.850;2022-08-21T14:12:28;6.25;;;1.30;;
67053;SDS011;53960;51.826;5.850;2022-08-21T14:15:02;6.72;;;1.30;;
67053;SDS011;53960;51.826;5.850;2022-08-21T14:17:31;5.77;;;1.50;;
67053;SDS011;53960;51.826;5.850;2022-08-21T14:20:00;7.53;;;1.50;;
67053;SDS011;53960;51.826;5.850;2022-08-21T14:22:30;7.97;;;1.55;;
67053;SDS011;53960;51.826;5.850;2022-08-21T14:25:03;8.18;;;1.40;;
67053;SDS011;53960;51.826;5.850;2022-08-21T14:27:32;6.18;;;1.30;;
67053;SDS011;53960;51.826;5.850;2022-08-21T14:30:00;7.07;;;1.60;;
67053;SDS011;53960;51.826;5.850;2022-08-21T14:32:47;8.77;;;1.48;;
67053;SDS011;53960;51.826;5.850;2022-08-21T14:35:12;8.63;;;1.73;;
67053;SDS011;53960;51.826;5.850;2022-08-21T14:37:41;7.00;;;1.58;;
67053;SDS011;53960;51.826;5.850;2022-08-21T14:40:07;8.50;;;1.57;;
67053;SDS011;53960;51.826;5.850;2022-08-21T14:42:33;9.18;;;1.65;;
67053;SDS011;53960;51.826;5.850;2022-08-21T14:45:00;7.35;;;1.55;;
67053;SDS011;53960;51.826;5.850;2022-08-21T14:47:27;8.43;;;1.97;;
67053;SDS011;53960;51.826;5.850;2022-08-21T14:49:53;6.85;;;1.60;;
67053;SDS011;53960;51.826;5.850;2022-08-21T14:52:19;8.18;;;1.50;;
67053;SDS011;53960;51.826;5.850;2022-08-21T14:54:45;7.10;;;1.70;;
67053;SDS011;53960;51.826;5.850;2022-08-21T14:57:10;8.57;;;1.50;;
67053;SDS011;53960;51.826;5.850;2022-08-21T14:59:37;7.05;;;1.60;;
67053;SDS011;53960;51.826;5.850;2022-08-21T15:02:04;7.28;;;1.67;;
67053;SDS011;53960;51.826;5.850;2022-08-21T15:04:30;8.40;;;1.52;;
67053;SDS011;53960;51.826;5.850;2022-08-21T15:06:55;8.53;;;1.53;;
67053;SDS011;53960;51.826;5.850;2022-08-21T15:09:21;6.93;;;1.53;;
67053;SDS011;53960;51.826;5.850;2022-08-21T15:11:48;9.18;;;1.60;;
67053;SDS011;53960;51.826;5.850;2022-08-21T15:14:26;7.07;;;1.50;;
67053;SDS011;53960;51.826;5.850;2022-08-21T15:16:53;8.52;;;1.88;;
67053;SDS011;53960;51.826;5.850;2022-08-21T15:19:18;7.47;;;1.40;;
67053;SDS011;53960;51.826;5.850;2022-08-21T15:21:44;8.03;;;1.60;;
67053;SDS011;53960;51.826;5.850;2022-08-21T15:24:09;8.03;;;1.57;;
67053;SDS011;53960;51.826;5.850;2022-08-21T15:26:35;9.30;;;1.50;;
67053;SDS011;53960;51.826;5.850;2022-08-21T15:29:01;7.28;;;1.33;;
67053;SDS011;53960;51.826;5.850;2022-08-21T15:31:27;6.80;;;1.35;;
67053;SDS011;53960;51.826;5.850;2022-08-21T15:33:53;7.47;;;1.50;;
67053;SDS011;53960;51.826;5.850;2022-08-21T15:36:18;6.80;;;1.40;;
67053;SDS011;53960;51.826;5.850;2022-08-21T15:38:44;7.72;;;1.42;;
67053;SDS011;53960;51.826;5.850;2022-08-21T15:41:10;7.18;;;1.50;;
67053;SDS011;53960;51.826;5.850;2022-08-21T15:43:43;7.23;;;1.40;;
67053;SDS011;53960;51.826;5.850;2022-08-21T15:46:13;10.50;;;2.00;;
67053;SDS011;53960;51.826;5.850;2022-08-21T15:48:40;8.25;;;1.70;;
67053;SDS011;53960;51.826;5.850;2022-08-21T15:51:06;7.97;;;1.60;;
67053;SDS011;53960;51.826;5.850;2022-08-21T15:53:33;6.93;;;1.60;;
67053;SDS011;53960;51.826;5.850;2022-08-21T15:56:03;10.43;;;1.83;;
67053;SDS011;53960;51.826;5.850;2022-08-21T15:58:29;8.07;;;1.50;;
67053;SDS011;53960;51.826;5.850;2022-08-21T16:00:54;6.67;;;1.60;;
67053;SDS011;53960;51.826;5.850;2022-08-21T16:03:24;7.55;;;1.65;;
67053;SDS011;53960;51.826;5.850;2022-08-21T16:05:51;9.13;;;1.90;;
67053;SDS011;53960;51.826;5.850;2022-08-21T16:08:18;9.02;;;1.70;;
67053;SDS011;53960;51.826;5.850;2022-08-21T16:10:44;8.77;;;1.53;;
67053;SDS011;53960;51.826;5.850;2022-08-21T16:13:12;8.93;;;1.90;;
67053;SDS011;53960;51.826;5.850;2022-08-21T16:15:42;7.07;;;1.70;;
67053;SDS011;53960;51.826;5.850;2022-08-21T16:18:07;7.33;;;1.90;;
67053;SDS011;53960;51.826;5.850;2022-08-21T16:20:34;7.30;;;1.63;;
67053;SDS011;53960;51.826;5.850;2022-08-21T16:22:59;8.97;;;2.00;;
67053;SDS011;53960;51.826;5.850;2022-08-21T16:25:25;8.27;;;2.07;;
67053;SDS011;53960;51.826;5.850;2022-08-21T16:27:53;9.63;;;2.58;;
67053;SDS011;53960;51.826;5.850;2022-08-21T16:30:22;10.15;;;2.10;;
67053;SDS011;53960;51.826;5.850;2022-08-21T16:32:47;9.90;;;1.93;;
67053;SDS011;53960;51.826;5.850;2022-08-21T16:35:14;8.97;;;2.33;;
67053;SDS011;53960;51.826;5.850;2022-08-21T16:37:42;8.13;;;2.10;;
67053;SDS011;53960;51.826;5.850;2022-08-21T16:40:08;7.75;;;2.00;;
67053;SDS011;53960;51.826;5.850;2022-08-21T16:42:34;8.52;;;2.30;;
67053;SDS011;53960;51.826;5.850;2022-08-21T16:45:02;8.23;;;2.28;;
67053;SDS011;53960;51.826;5.850;2022-08-21T16:47:32;10.07;;;2.10;;
67053;SDS011;53960;51.826;5.850;2022-08-21T16:49:58;8.05;;;1.90;;
67053;SDS011;53960;51.826;5.850;2022-08-21T16:52:23;8.63;;;2.13;;
67053;SDS011;53960;51.826;5.850;2022-08-21T16:54:49;7.83;;;2.00;;
67053;SDS011;53960;51.826;5.850;2022-08-21T16:57:14;8.23;;;2.07;;
67053;SDS011;53960;51.826;5.850;2022-08-21T16:59:39;8.95;;;2.10;;
67053;SDS011;53960;51.826;5.850;2022-08-21T17:02:07;8.77;;;1.90;;
67053;SDS011;53960;51.826;5.850;2022-08-21T17:04:45;7.80;;;1.88;;
67053;SDS011;53960;51.826;5.850;2022-08-21T17:07:10;9.47;;;1.93;;
67053;SDS011;53960;51.826;5.850;2022-08-21T17:09:36;8.07;;;1.83;;
67053;SDS011;53960;51.826;5.850;2022-08-21T17:12:01;7.73;;;2.07;;
67053;SDS011;53960;51.826;5.850;2022-08-21T17:14:26;8.48;;;1.73;;
67053;SDS011;53960;51.826;5.850;2022-08-21T17:16:53;8.33;;;1.83;;
67053;SDS011;53960;51.826;5.850;2022-08-21T17:19:21;8.20;;;1.60;;
67053;SDS011;53960;51.826;5.850;2022-08-21T17:21:47;8.07;;;2.05;;